Earlton, Canada
Current Conditions -  °F | °C
As of 2:55 PM on Wednesday 17 Dec 2014 (Local Time) from CYXR Reporting Station
Light Snow Light Snow  
Wind Chill:   Ceiling: 2600
Heat Index: 21°   Visibility: 3mi
Dew Point: 19°   Wind: 17mph
Humidity: 93%   Direction: 340°NNW
Pressure: 29.87"   Gusts: NA
Location:  47.71°N, 79.82°W
Report Text: CYXR 171955Z AUTO 34015KT 3SM -SN SCT011 OVC026 M06/M07 A2987 RMK ICG PAST HR SLP130
Loading
Personal Weather Stations






























Interactive Weather Map New forecast layout! Learn more

10-Day Weather Forecast

Advertisements
Track Severe Weather on mobile